sensor_id;sensor_type;location;lat;lon;timestamp;P1;durP1;ratioP1;P2;durP2;ratioP2
66597;SDS011;57424;53.128;6.406;2022-07-06T00:01:14;1.73;;;0.70;;
66597;SDS011;57424;53.128;6.406;2022-07-06T00:03:39;1.45;;;0.80;;
66597;SDS011;57424;53.128;6.406;2022-07-06T00:06:05;2.70;;;0.70;;
66597;SDS011;57424;53.128;6.406;2022-07-06T00:08:31;2.85;;;0.90;;
66597;SDS011;57424;53.128;6.406;2022-07-06T00:10:56;2.80;;;0.95;;
66597;SDS011;57424;53.128;6.406;2022-07-06T00:13:22;1.00;;;0.80;;
66597;SDS011;57424;53.128;6.406;2022-07-06T00:15:48;1.77;;;0.80;;
66597;SDS011;57424;53.128;6.406;2022-07-06T00:18:13;0.52;;;0.52;;
66597;SDS011;57424;53.128;6.406;2022-07-06T00:20:39;1.10;;;0.60;;
66597;SDS011;57424;53.128;6.406;2022-07-06T00:23:04;0.95;;;0.52;;
66597;SDS011;57424;53.128;6.406;2022-07-06T00:25:30;2.05;;;0.93;;
66597;SDS011;57424;53.128;6.406;2022-07-06T00:27:55;2.15;;;0.88;;
66597;SDS011;57424;53.128;6.406;2022-07-06T00:30:21;2.78;;;0.80;;
66597;SDS011;57424;53.128;6.406;2022-07-06T00:32:47;1.05;;;0.60;;
66597;SDS011;57424;53.128;6.406;2022-07-06T00:35:13;2.13;;;0.90;;
66597;SDS011;57424;53.128;6.406;2022-07-06T00:37:39;1.25;;;0.68;;
66597;SDS011;57424;53.128;6.406;2022-07-06T00:40:05;1.30;;;0.63;;
66597;SDS011;57424;53.128;6.406;2022-07-06T00:42:38;1.05;;;0.63;;
66597;SDS011;57424;53.128;6.406;2022-07-06T00:45:05;1.58;;;0.60;;
66597;SDS011;57424;53.128;6.406;2022-07-06T00:47:30;1.20;;;0.73;;
66597;SDS011;57424;53.128;6.406;2022-07-06T00:49:56;0.85;;;0.65;;
66597;SDS011;57424;53.128;6.406;2022-07-06T00:52:40;1.13;;;0.60;;
66597;SDS011;57424;53.128;6.406;2022-07-06T00:55:07;0.98;;;0.60;;
66597;SDS011;57424;53.128;6.406;2022-07-06T00:57:37;1.95;;;0.75;;
66597;SDS011;57424;53.128;6.406;2022-07-06T01:00:03;1.50;;;0.57;;
66597;SDS011;57424;53.128;6.406;2022-07-06T01:02:33;1.50;;;0.65;;
66597;SDS011;57424;53.128;6.406;2022-07-06T01:04:59;2.35;;;0.68;;
66597;SDS011;57424;53.128;6.406;2022-07-06T01:07:25;1.27;;;0.47;;
66597;SDS011;57424;53.128;6.406;2022-07-06T01:09:53;1.65;;;0.73;;
66597;SDS011;57424;53.128;6.406;2022-07-06T01:12:19;1.42;;;1.02;;
66597;SDS011;57424;53.128;6.406;2022-07-06T01:14:45;2.22;;;0.60;;
66597;SDS011;57424;53.128;6.406;2022-07-06T01:17:12;1.17;;;0.63;;
66597;SDS011;57424;53.128;6.406;2022-07-06T01:19:40;1.35;;;0.60;;
66597;SDS011;57424;53.128;6.406;2022-07-06T01:22:05;0.88;;;0.60;;
66597;SDS011;57424;53.128;6.406;2022-07-06T01:24:31;1.88;;;0.65;;
66597;SDS011;57424;53.128;6.406;2022-07-06T01:26:59;1.90;;;0.80;;
66597;SDS011;57424;53.128;6.406;2022-07-06T01:29:25;1.10;;;0.60;;
66597;SDS011;57424;53.128;6.406;2022-07-06T01:31:51;2.30;;;0.90;;
66597;SDS011;57424;53.128;6.406;2022-07-06T01:34:16;1.27;;;0.68;;
66597;SDS011;57424;53.128;6.406;2022-07-06T01:36:43;0.93;;;0.60;;
66597;SDS011;57424;53.128;6.406;2022-07-06T01:39:09;1.45;;;0.70;;
66597;SDS011;57424;53.128;6.406;2022-07-06T01:41:35;0.98;;;0.60;;
66597;SDS011;57424;53.128;6.406;2022-07-06T01:44:01;1.00;;;0.50;;
66597;SDS011;57424;53.128;6.406;2022-07-06T01:46:27;1.40;;;0.68;;
66597;SDS011;57424;53.128;6.406;2022-07-06T01:48:53;1.00;;;0.60;;
66597;SDS011;57424;53.128;6.406;2022-07-06T01:51:19;0.85;;;0.50;;
66597;SDS011;57424;53.128;6.406;2022-07-06T01:53:45;1.50;;;0.70;;
66597;SDS011;57424;53.128;6.406;2022-07-06T01:56:10;1.65;;;0.50;;
66597;SDS011;57424;53.128;6.406;2022-07-06T01:58:36;1.35;;;0.63;;
66597;SDS011;57424;53.128;6.406;2022-07-06T02:01:06;0.80;;;0.50;;
66597;SDS011;57424;53.128;6.406;2022-07-06T02:03:33;0.95;;;0.50;;
66597;SDS011;57424;53.128;6.406;2022-07-06T02:05:59;1.38;;;0.60;;
66597;SDS011;57424;53.128;6.406;2022-07-06T02:08:25;1.52;;;0.57;;
66597;SDS011;57424;53.128;6.406;2022-07-06T02:10:50;2.42;;;0.70;;
66597;SDS011;57424;53.128;6.406;2022-07-06T02:13:16;1.17;;;0.70;;
66597;SDS011;57424;53.128;6.406;2022-07-06T02:15:42;1.52;;;0.65;;
66597;SDS011;57424;53.128;6.406;2022-07-06T02:18:07;1.05;;;0.65;;
66597;SDS011;57424;53.128;6.406;2022-07-06T02:20:33;0.65;;;0.60;;
66597;SDS011;57424;53.128;6.406;2022-07-06T02:22:58;1.38;;;0.63;;
66597;SDS011;57424;53.128;6.406;2022-07-06T02:25:24;1.00;;;0.50;;
66597;SDS011;57424;53.128;6.406;2022-07-06T02:27:49;1.95;;;0.60;;
66597;SDS011;57424;53.128;6.406;2022-07-06T02:30:15;1.08;;;0.70;;
66597;SDS011;57424;53.128;6.406;2022-07-06T02:32:41;0.98;;;0.70;;
66597;SDS011;57424;53.128;6.406;2022-07-06T02:35:06;0.88;;;0.52;;
66597;SDS011;57424;53.128;6.406;2022-07-06T02:37:32;1.55;;;0.63;;
66597;SDS011;57424;53.128;6.406;2022-07-06T02:39:58;0.52;;;0.52;;
66597;SDS011;57424;53.128;6.406;2022-07-06T02:42:23;1.30;;;0.57;;
66597;SDS011;57424;53.128;6.406;2022-07-06T02:44:49;1.60;;;0.57;;
66597;SDS011;57424;53.128;6.406;2022-07-06T02:47:14;0.68;;;0.50;;
66597;SDS011;57424;53.128;6.406;2022-07-06T02:49:40;0.98;;;0.45;;
66597;SDS011;57424;53.128;6.406;2022-07-06T02:52:05;1.63;;;0.60;;
66597;SDS011;57424;53.128;6.406;2022-07-06T02:54:31;1.08;;;0.47;;
66597;SDS011;57424;53.128;6.406;2022-07-06T02:56:56;1.48;;;0.70;;
66597;SDS011;57424;53.128;6.406;2022-07-06T02:59:22;0.95;;;0.50;;
66597;SDS011;57424;53.128;6.406;2022-07-06T03:01:48;0.73;;;0.50;;
66597;SDS011;57424;53.128;6.406;2022-07-06T03:04:13;2.20;;;0.70;;
66597;SDS011;57424;53.128;6.406;2022-07-06T03:06:39;3.03;;;0.63;;
66597;SDS011;57424;53.128;6.406;2022-07-06T03:09:04;1.23;;;0.55;;
66597;SDS011;57424;53.128;6.406;2022-07-06T03:11:30;1.40;;;0.60;;
66597;SDS011;57424;53.128;6.406;2022-07-06T03:13:55;0.77;;;0.52;;
66597;SDS011;57424;53.128;6.406;2022-07-06T03:16:21;1.30;;;0.82;;
66597;SDS011;57424;53.128;6.406;2022-07-06T03:18:46;2.42;;;0.80;;
66597;SDS011;57424;53.128;6.406;2022-07-06T03:21:12;1.30;;;0.65;;
66597;SDS011;57424;53.128;6.406;2022-07-06T03:23:37;1.08;;;0.50;;
66597;SDS011;57424;53.128;6.406;2022-07-06T03:26:03;1.40;;;0.60;;
66597;SDS011;57424;53.128;6.406;2022-07-06T03:28:29;1.20;;;0.70;;
66597;SDS011;57424;53.128;6.406;2022-07-06T03:30:54;1.17;;;0.50;;
66597;SDS011;57424;53.128;6.406;2022-07-06T03:33:20;1.63;;;0.60;;
66597;SDS011;57424;53.128;6.406;2022-07-06T03:35:45;0.68;;;0.40;;
66597;SDS011;57424;53.128;6.406;2022-07-06T03:38:11;1.23;;;0.60;;
66597;SDS011;57424;53.128;6.406;2022-07-06T03:40:36;1.38;;;0.60;;
66597;SDS011;57424;53.128;6.406;2022-07-06T03:43:02;1.00;;;0.60;;
66597;SDS011;57424;53.128;6.406;2022-07-06T03:45:27;1.10;;;0.50;;
66597;SDS011;57424;53.128;6.406;2022-07-06T03:47:53;1.88;;;0.80;;
66597;SDS011;57424;53.128;6.406;2022-07-06T03:50:18;0.90;;;0.50;;
66597;SDS011;57424;53.128;6.406;2022-07-06T03:52:44;0.63;;;0.40;;
66597;SDS011;57424;53.128;6.406;2022-07-06T03:55:10;1.33;;;0.52;;
66597;SDS011;57424;53.128;6.406;2022-07-06T03:57:37;1.17;;;0.60;;
66597;SDS011;57424;53.128;6.406;2022-07-06T04:00:03;1.20;;;0.70;;
66597;SDS011;57424;53.128;6.406;2022-07-06T04:02:29;0.90;;;0.60;;
66597;SDS011;57424;53.128;6.406;2022-07-06T04:04:55;1.00;;;0.60;;
66597;SDS011;57424;53.128;6.406;2022-07-06T04:07:21;1.60;;;0.70;;
66597;SDS011;57424;53.128;6.406;2022-07-06T04:09:46;2.38;;;0.63;;
66597;SDS011;57424;53.128;6.406;2022-07-06T04:12:12;0.68;;;0.45;;
66597;SDS011;57424;53.128;6.406;2022-07-06T04:14:37;1.30;;;0.63;;
66597;SDS011;57424;53.128;6.406;2022-07-06T04:17:04;1.02;;;0.60;;
66597;SDS011;57424;53.128;6.406;2022-07-06T04:19:49;1.25;;;0.55;;
66597;SDS011;57424;53.128;6.406;2022-07-06T04:22:15;0.90;;;0.50;;
66597;SDS011;57424;53.128;6.406;2022-07-06T04:24:41;1.40;;;0.65;;
66597;SDS011;57424;53.128;6.406;2022-07-06T04:27:07;3.10;;;0.68;;
66597;SDS011;57424;53.128;6.406;2022-07-06T04:29:32;0.80;;;0.57;;
66597;SDS011;57424;53.128;6.406;2022-07-06T04:31:58;2.90;;;0.93;;
66597;SDS011;57424;53.128;6.406;2022-07-06T04:34:24;2.03;;;0.45;;
66597;SDS011;57424;53.128;6.406;2022-07-06T04:36:49;2.45;;;0.50;;
66597;SDS011;57424;53.128;6.406;2022-07-06T04:39:15;1.45;;;0.68;;
66597;SDS011;57424;53.128;6.406;2022-07-06T04:41:40;1.38;;;0.70;;
66597;SDS011;57424;53.128;6.406;2022-07-06T04:44:06;3.30;;;0.90;;
66597;SDS011;57424;53.128;6.406;2022-07-06T04:46:31;4.18;;;0.60;;
66597;SDS011;57424;53.128;6.406;2022-07-06T04:48:57;2.40;;;0.70;;
66597;SDS011;57424;53.128;6.406;2022-07-06T04:51:22;1.77;;;0.60;;
66597;SDS011;57424;53.128;6.406;2022-07-06T04:53:48;1.75;;;0.70;;
66597;SDS011;57424;53.128;6.406;2022-07-06T04:56:13;1.95;;;0.60;;
66597;SDS011;57424;53.128;6.406;2022-07-06T04:58:39;1.27;;;0.65;;
66597;SDS011;57424;53.128;6.406;2022-07-06T05:01:04;0.98;;;0.68;;
66597;SDS011;57424;53.128;6.406;2022-07-06T05:03:30;1.95;;;0.70;;
66597;SDS011;57424;53.128;6.406;2022-07-06T05:05:56;6.88;;;0.90;;
66597;SDS011;57424;53.128;6.406;2022-07-06T05:08:21;4.47;;;0.60;;
66597;SDS011;57424;53.128;6.406;2022-07-06T05:10:48;1.92;;;0.77;;
66597;SDS011;57424;53.128;6.406;2022-07-06T05:13:13;5.57;;;0.70;;
66597;SDS011;57424;53.128;6.406;2022-07-06T05:15:39;3.05;;;0.70;;
66597;SDS011;57424;53.128;6.406;2022-07-06T05:18:05;2.95;;;0.85;;
66597;SDS011;57424;53.128;6.406;2022-07-06T05:20:30;2.22;;;0.70;;
66597;SDS011;57424;53.128;6.406;2022-07-06T05:22:56;1.92;;;0.70;;
66597;SDS011;57424;53.128;6.406;2022-07-06T05:25:22;2.00;;;0.68;;
66597;SDS011;57424;53.128;6.406;2022-07-06T05:27:48;3.17;;;1.08;;
66597;SDS011;57424;53.128;6.406;2022-07-06T05:30:13;1.38;;;0.40;;
66597;SDS011;57424;53.128;6.406;2022-07-06T05:32:40;1.10;;;0.60;;
66597;SDS011;57424;53.128;6.406;2022-07-06T05:35:06;4.07;;;0.82;;
66597;SDS011;57424;53.128;6.406;2022-07-06T05:37:32;3.13;;;0.73;;
66597;SDS011;57424;53.128;6.406;2022-07-06T05:39:58;2.78;;;0.60;;
66597;SDS011;57424;53.128;6.406;2022-07-06T05:42:23;1.88;;;0.70;;
66597;SDS011;57424;53.128;6.406;2022-07-06T05:44:49;1.75;;;0.77;;
66597;SDS011;57424;53.128;6.406;2022-07-06T05:47:15;2.67;;;0.70;;
66597;SDS011;57424;53.128;6.406;2022-07-06T05:49:59;0.82;;;0.52;;
66597;SDS011;57424;53.128;6.406;2022-07-06T05:52:40;1.35;;;0.50;;
66597;SDS011;57424;53.128;6.406;2022-07-06T05:55:10;2.15;;;0.70;;
66597;SDS011;57424;53.128;6.406;2022-07-06T05:57:37;0.50;;;0.40;;
66597;SDS011;57424;53.128;6.406;2022-07-06T06:00:06;1.15;;;0.40;;
66597;SDS011;57424;53.128;6.406;2022-07-06T06:02:36;1.38;;;0.40;;
66597;SDS011;57424;53.128;6.406;2022-07-06T06:05:02;1.17;;;0.45;;
66597;SDS011;57424;53.128;6.406;2022-07-06T06:07:28;1.50;;;0.57;;
66597;SDS011;57424;53.128;6.406;2022-07-06T06:09:54;0.82;;;0.50;;
66597;SDS011;57424;53.128;6.406;2022-07-06T06:12:19;3.40;;;0.50;;
66597;SDS011;57424;53.128;6.406;2022-07-06T06:14:45;1.00;;;0.52;;
66597;SDS011;57424;53.128;6.406;2022-07-06T06:17:10;1.85;;;0.55;;
66597;SDS011;57424;53.128;6.406;2022-07-06T06:19:36;0.98;;;0.50;;
66597;SDS011;57424;53.128;6.406;2022-07-06T06:22:02;1.65;;;0.60;;
66597;SDS011;57424;53.128;6.406;2022-07-06T06:24:28;1.85;;;0.50;;
66597;SDS011;57424;53.128;6.406;2022-07-06T06:26:53;1.42;;;0.50;;
66597;SDS011;57424;53.128;6.406;2022-07-06T06:29:19;1.10;;;0.68;;
66597;SDS011;57424;53.128;6.406;2022-07-06T06:31:44;1.15;;;0.50;;
66597;SDS011;57424;53.128;6.406;2022-07-06T06:34:10;1.00;;;0.55;;
66597;SDS011;57424;53.128;6.406;2022-07-06T06:36:35;1.13;;;0.50;;
66597;SDS011;57424;53.128;6.406;2022-07-06T06:39:01;0.65;;;0.45;;
66597;SDS011;57424;53.128;6.406;2022-07-06T06:41:27;1.55;;;0.52;;
66597;SDS011;57424;53.128;6.406;2022-07-06T06:43:53;1.30;;;0.50;;
66597;SDS011;57424;53.128;6.406;2022-07-06T06:46:18;1.85;;;0.70;;
66597;SDS011;57424;53.128;6.406;2022-07-06T06:48:44;2.85;;;0.80;;
66597;SDS011;57424;53.128;6.406;2022-07-06T06:51:09;2.05;;;0.50;;
66597;SDS011;57424;53.128;6.406;2022-07-06T06:53:35;0.55;;;0.32;;
66597;SDS011;57424;53.128;6.406;2022-07-06T06:56:00;1.38;;;0.57;;
66597;SDS011;57424;53.128;6.406;2022-07-06T06:58:26;2.10;;;0.73;;
66597;SDS011;57424;53.128;6.406;2022-07-06T07:00:53;3.85;;;0.60;;
66597;SDS011;57424;53.128;6.406;2022-07-06T07:03:18;5.63;;;0.82;;
66597;SDS011;57424;53.128;6.406;2022-07-06T07:05:44;3.67;;;0.70;;
66597;SDS011;57424;53.128;6.406;2022-07-06T07:08:10;3.75;;;0.63;;
66597;SDS011;57424;53.128;6.406;2022-07-06T07:10:35;2.53;;;0.65;;
66597;SDS011;57424;53.128;6.406;2022-07-06T07:13:01;1.77;;;0.50;;
66597;SDS011;57424;53.128;6.406;2022-07-06T07:15:26;3.03;;;0.55;;
66597;SDS011;57424;53.128;6.406;2022-07-06T07:17:53;1.95;;;0.73;;
66597;SDS011;57424;53.128;6.406;2022-07-06T07:20:19;2.65;;;0.80;;
66597;SDS011;57424;53.128;6.406;2022-07-06T07:22:44;2.20;;;0.75;;
66597;SDS011;57424;53.128;6.406;2022-07-06T07:25:10;2.25;;;0.45;;
66597;SDS011;57424;53.128;6.406;2022-07-06T07:27:35;4.70;;;0.63;;
66597;SDS011;57424;53.128;6.406;2022-07-06T07:30:01;1.05;;;0.65;;
66597;SDS011;57424;53.128;6.406;2022-07-06T07:32:27;6.07;;;0.65;;
66597;SDS011;57424;53.128;6.406;2022-07-06T07:34:53;2.35;;;0.70;;
66597;SDS011;57424;53.128;6.406;2022-07-06T07:37:18;3.75;;;0.65;;
66597;SDS011;57424;53.128;6.406;2022-07-06T07:39:44;1.38;;;0.70;;
66597;SDS011;57424;53.128;6.406;2022-07-06T07:42:10;2.22;;;0.70;;
66597;SDS011;57424;53.128;6.406;2022-07-06T07:44:35;1.48;;;0.50;;
66597;SDS011;57424;53.128;6.406;2022-07-06T07:47:01;3.17;;;0.80;;
66597;SDS011;57424;53.128;6.406;2022-07-06T07:49:27;2.15;;;0.63;;
66597;SDS011;57424;53.128;6.406;2022-07-06T07:51:53;1.40;;;0.50;;
66597;SDS011;57424;53.128;6.406;2022-07-06T07:54:18;1.88;;;0.50;;
66597;SDS011;57424;53.128;6.406;2022-07-06T07:56:44;0.77;;;0.30;;
66597;SDS011;57424;53.128;6.406;2022-07-06T07:59:10;4.53;;;0.60;;
66597;SDS011;57424;53.128;6.406;2022-07-06T08:01:35;1.35;;;0.45;;
66597;SDS011;57424;53.128;6.406;2022-07-06T08:04:01;1.40;;;0.70;;
66597;SDS011;57424;53.128;6.406;2022-07-06T08:06:27;1.45;;;0.50;;
66597;SDS011;57424;53.128;6.406;2022-07-06T08:08:53;3.80;;;0.70;;
66597;SDS011;57424;53.128;6.406;2022-07-06T08:11:18;4.15;;;0.98;;
66597;SDS011;57424;53.128;6.406;2022-07-06T08:13:44;2.45;;;0.57;;
66597;SDS011;57424;53.128;6.406;2022-07-06T08:16:10;0.55;;;0.40;;
66597;SDS011;57424;53.128;6.406;2022-07-06T08:18:36;1.23;;;0.60;;
66597;SDS011;57424;53.128;6.406;2022-07-06T08:21:02;1.17;;;0.50;;
66597;SDS011;57424;53.128;6.406;2022-07-06T08:23:28;1.20;;;0.40;;
66597;SDS011;57424;53.128;6.406;2022-07-06T08:25:53;1.52;;;0.50;;
66597;SDS011;57424;53.128;6.406;2022-07-06T08:28:19;1.98;;;0.65;;
66597;SDS011;57424;53.128;6.406;2022-07-06T08:30:45;1.15;;;0.50;;
66597;SDS011;57424;53.128;6.406;2022-07-06T08:33:10;1.98;;;0.60;;
66597;SDS011;57424;53.128;6.406;2022-07-06T08:35:36;1.10;;;0.50;;
66597;SDS011;57424;53.128;6.406;2022-07-06T08:38:01;1.40;;;0.50;;
66597;SDS011;57424;53.128;6.406;2022-07-06T08:40:33;1.50;;;0.50;;
66597;SDS011;57424;53.128;6.406;2022-07-06T08:43:02;1.08;;;0.40;;
66597;SDS011;57424;53.128;6.406;2022-07-06T08:45:27;2.13;;;0.50;;
66597;SDS011;57424;53.128;6.406;2022-07-06T08:47:55;0.98;;;0.30;;
66597;SDS011;57424;53.128;6.406;2022-07-06T08:50:23;1.58;;;0.50;;
66597;SDS011;57424;53.128;6.406;2022-07-06T08:52:50;3.13;;;0.63;;
66597;SDS011;57424;53.128;6.406;2022-07-06T08:55:16;1.33;;;0.40;;
66597;SDS011;57424;53.128;6.406;2022-07-06T08:57:43;0.85;;;0.40;;
66597;SDS011;57424;53.128;6.406;2022-07-06T09:00:12;3.42;;;0.60;;
66597;SDS011;57424;53.128;6.406;2022-07-06T09:02:38;0.52;;;0.40;;
66597;SDS011;57424;53.128;6.406;2022-07-06T09:05:05;1.65;;;0.50;;
66597;SDS011;57424;53.128;6.406;2022-07-06T09:07:32;1.80;;;0.40;;
66597;SDS011;57424;53.128;6.406;2022-07-06T09:09:59;1.90;;;0.57;;
66597;SDS011;57424;53.128;6.406;2022-07-06T09:12:26;1.92;;;0.63;;
66597;SDS011;57424;53.128;6.406;2022-07-06T09:14:54;3.95;;;0.63;;
66597;SDS011;57424;53.128;6.406;2022-07-06T09:17:24;1.48;;;0.60;;
66597;SDS011;57424;53.128;6.406;2022-07-06T09:19:52;1.25;;;0.50;;
66597;SDS011;57424;53.128;6.406;2022-07-06T09:22:28;1.65;;;0.60;;
66597;SDS011;57424;53.128;6.406;2022-07-06T09:25:09;1.95;;;0.50;;
66597;SDS011;57424;53.128;6.406;2022-07-06T09:27:40;3.85;;;0.52;;
66597;SDS011;57424;53.128;6.406;2022-07-06T09:30:19;4.60;;;0.95;;
66597;SDS011;57424;53.128;6.406;2022-07-06T09:32:48;5.38;;;0.60;;
66597;SDS011;57424;53.128;6.406;2022-07-06T09:37:58;2.90;;;0.52;;
66597;SDS011;57424;53.128;6.406;2022-07-06T09:40:30;1.70;;;0.60;;
66597;SDS011;57424;53.128;6.406;2022-07-06T09:43:16;3.40;;;0.80;;
66597;SDS011;57424;53.128;6.406;2022-07-06T09:45:44;1.45;;;0.70;;
66597;SDS011;57424;53.128;6.406;2022-07-06T09:50:57;0.60;;;0.40;;
66597;SDS011;57424;53.128;6.406;2022-07-06T09:53:24;2.28;;;0.52;;
66597;SDS011;57424;53.128;6.406;2022-07-06T09:55:51;3.22;;;0.73;;
66597;SDS011;57424;53.128;6.406;2022-07-06T09:58:19;2.70;;;0.60;;
66597;SDS011;57424;53.128;6.406;2022-07-06T10:00:45;3.20;;;0.57;;
66597;SDS011;57424;53.128;6.406;2022-07-06T10:03:12;2.13;;;0.53;;
66597;SDS011;57424;53.128;6.406;2022-07-06T10:05:42;1.15;;;0.50;;
66597;SDS011;57424;53.128;6.406;2022-07-06T10:08:11;2.65;;;0.60;;
66597;SDS011;57424;53.128;6.406;2022-07-06T10:10:40;5.18;;;0.70;;
66597;SDS011;57424;53.128;6.406;2022-07-06T10:13:07;1.30;;;0.60;;
66597;SDS011;57424;53.128;6.406;2022-07-06T10:15:34;2.35;;;0.45;;
66597;SDS011;57424;53.128;6.406;2022-07-06T10:20:28;1.52;;;0.73;;
66597;SDS011;57424;53.128;6.406;2022-07-06T10:22:57;7.55;;;1.13;;
66597;SDS011;57424;53.128;6.406;2022-07-06T10:25:24;2.85;;;0.45;;
66597;SDS011;57424;53.128;6.406;2022-07-06T10:27:55;1.23;;;0.57;;
66597;SDS011;57424;53.128;6.406;2022-07-06T10:30:22;1.35;;;0.40;;
66597;SDS011;57424;53.128;6.406;2022-07-06T10:32:49;0.75;;;0.30;;
66597;SDS011;57424;53.128;6.406;2022-07-06T10:35:16;2.53;;;0.55;;
66597;SDS011;57424;53.128;6.406;2022-07-06T10:37:45;1.50;;;0.50;;
66597;SDS011;57424;53.128;6.406;2022-07-06T10:40:37;0.95;;;0.40;;
66597;SDS011;57424;53.128;6.406;2022-07-06T10:43:22;3.50;;;0.70;;
66597;SDS011;57424;53.128;6.406;2022-07-06T10:53:16;3.33;;;0.50;;
66597;SDS011;57424;53.128;6.406;2022-07-06T10:55:52;3.25;;;0.52;;
66597;SDS011;57424;53.128;6.406;2022-07-06T10:58:35;2.10;;;0.40;;
66597;SDS011;57424;53.128;6.406;2022-07-06T11:01:27;2.80;;;0.40;;
66597;SDS011;57424;53.128;6.406;2022-07-06T11:06:23;2.80;;;0.50;;
66597;SDS011;57424;53.128;6.406;2022-07-06T11:08:50;3.15;;;0.70;;
66597;SDS011;57424;53.128;6.406;2022-07-06T11:17:00;1.35;;;0.40;;
66597;SDS011;57424;53.128;6.406;2022-07-06T11:19:26;3.28;;;0.40;;
66597;SDS011;57424;53.128;6.406;2022-07-06T11:21:53;1.83;;;0.63;;
66597;SDS011;57424;53.128;6.406;2022-07-06T11:26:53;1.48;;;0.40;;
66597;SDS011;57424;53.128;6.406;2022-07-06T11:29:20;4.20;;;0.70;;
66597;SDS011;57424;53.128;6.406;2022-07-06T11:31:47;2.30;;;0.60;;
66597;SDS011;57424;53.128;6.406;2022-07-06T11:34:18;1.50;;;0.40;;
66597;SDS011;57424;53.128;6.406;2022-07-06T11:36:49;1.30;;;0.70;;
66597;SDS011;57424;53.128;6.406;2022-07-06T11:39:19;1.75;;;0.43;;
66597;SDS011;57424;53.128;6.406;2022-07-06T11:41:44;1.73;;;0.50;;
66597;SDS011;57424;53.128;6.406;2022-07-06T11:44:10;2.00;;;0.50;;
66597;SDS011;57424;53.128;6.406;2022-07-06T11:46:36;1.55;;;0.43;;
66597;SDS011;57424;53.128;6.406;2022-07-06T11:49:02;1.95;;;0.40;;
66597;SDS011;57424;53.128;6.406;2022-07-06T11:51:30;1.20;;;0.63;;
66597;SDS011;57424;53.128;6.406;2022-07-06T11:54:01;1.05;;;0.50;;
66597;SDS011;57424;53.128;6.406;2022-07-06T11:56:32;1.45;;;0.43;;
66597;SDS011;57424;53.128;6.406;2022-07-06T11:58:58;1.95;;;0.63;;
66597;SDS011;57424;53.128;6.406;2022-07-06T12:01:25;0.68;;;0.43;;
66597;SDS011;57424;53.128;6.406;2022-07-06T12:03:52;1.33;;;0.55;;
66597;SDS011;57424;53.128;6.406;2022-07-06T12:06:19;1.33;;;0.55;;
66597;SDS011;57424;53.128;6.406;2022-07-06T12:11:21;2.80;;;0.60;;
66597;SDS011;57424;53.128;6.406;2022-07-06T12:13:48;1.48;;;0.63;;
66597;SDS011;57424;53.128;6.406;2022-07-06T12:16:14;2.78;;;0.70;;
66597;SDS011;57424;53.128;6.406;2022-07-06T12:18:41;1.33;;;0.60;;
66597;SDS011;57424;53.128;6.406;2022-07-06T12:21:13;1.42;;;0.40;;
66597;SDS011;57424;53.128;6.406;2022-07-06T12:23:42;2.65;;;0.85;;
66597;SDS011;57424;53.128;6.406;2022-07-06T12:26:09;2.55;;;0.60;;
66597;SDS011;57424;53.128;6.406;2022-07-06T12:28:36;1.15;;;0.60;;
66597;SDS011;57424;53.128;6.406;2022-07-06T12:31:01;1.92;;;0.50;;
66597;SDS011;57424;53.128;6.406;2022-07-06T12:33:28;1.92;;;0.63;;
66597;SDS011;57424;53.128;6.406;2022-07-06T12:35:54;0.85;;;0.30;;
66597;SDS011;57424;53.128;6.406;2022-07-06T12:38:23;2.17;;;0.52;;
66597;SDS011;57424;53.128;6.406;2022-07-06T12:40:52;0.95;;;0.60;;
66597;SDS011;57424;53.128;6.406;2022-07-06T12:43:37;3.53;;;0.80;;
66597;SDS011;57424;53.128;6.406;2022-07-06T12:48:55;2.05;;;0.60;;
66597;SDS011;57424;53.128;6.406;2022-07-06T12:51:22;3.17;;;0.55;;
66597;SDS011;57424;53.128;6.406;2022-07-06T12:53:48;2.22;;;0.50;;
66597;SDS011;57424;53.128;6.406;2022-07-06T12:56:14;1.02;;;0.77;;
66597;SDS011;57424;53.128;6.406;2022-07-06T12:58:54;2.00;;;0.60;;
66597;SDS011;57424;53.128;6.406;2022-07-06T13:01:25;5.55;;;1.02;;
66597;SDS011;57424;53.128;6.406;2022-07-06T13:03:57;2.47;;;0.90;;
66597;SDS011;57424;53.128;6.406;2022-07-06T13:06:30;3.00;;;0.60;;
66597;SDS011;57424;53.128;6.406;2022-07-06T13:08:57;3.42;;;0.70;;
66597;SDS011;57424;53.128;6.406;2022-07-06T13:11:22;3.47;;;0.70;;
66597;SDS011;57424;53.128;6.406;2022-07-06T13:13:48;2.20;;;0.70;;
66597;SDS011;57424;53.128;6.406;2022-07-06T13:16:13;2.10;;;0.80;;
66597;SDS011;57424;53.128;6.406;2022-07-06T13:18:39;4.15;;;0.90;;
66597;SDS011;57424;53.128;6.406;2022-07-06T13:21:04;4.95;;;0.98;;
66597;SDS011;57424;53.128;6.406;2022-07-06T13:23:30;1.95;;;0.65;;
66597;SDS011;57424;53.128;6.406;2022-07-06T13:25:55;2.00;;;0.70;;
66597;SDS011;57424;53.128;6.406;2022-07-06T13:28:22;1.80;;;0.63;;
66597;SDS011;57424;53.128;6.406;2022-07-06T13:30:47;2.15;;;0.70;;
66597;SDS011;57424;53.128;6.406;2022-07-06T13:33:13;1.40;;;0.57;;
66597;SDS011;57424;53.128;6.406;2022-07-06T13:35:38;5.05;;;1.40;;
66597;SDS011;57424;53.128;6.406;2022-07-06T13:38:04;4.63;;;1.00;;
66597;SDS011;57424;53.128;6.406;2022-07-06T13:40:29;2.17;;;0.75;;
66597;SDS011;57424;53.128;6.406;2022-07-06T13:42:55;1.98;;;0.80;;
66597;SDS011;57424;53.128;6.406;2022-07-06T13:45:22;3.85;;;0.82;;
66597;SDS011;57424;53.128;6.406;2022-07-06T13:47:47;3.22;;;0.82;;
66597;SDS011;57424;53.128;6.406;2022-07-06T13:50:13;1.45;;;0.60;;
66597;SDS011;57424;53.128;6.406;2022-07-06T13:52:38;2.35;;;0.80;;
66597;SDS011;57424;53.128;6.406;2022-07-06T13:55:04;3.35;;;1.02;;
66597;SDS011;57424;53.128;6.406;2022-07-06T13:57:31;3.00;;;0.98;;
66597;SDS011;57424;53.128;6.406;2022-07-06T13:59:56;2.28;;;0.90;;
66597;SDS011;57424;53.128;6.406;2022-07-06T14:02:22;3.80;;;1.00;;
66597;SDS011;57424;53.128;6.406;2022-07-06T14:04:47;4.65;;;1.00;;
66597;SDS011;57424;53.128;6.406;2022-07-06T14:07:13;2.63;;;1.40;;
66597;SDS011;57424;53.128;6.406;2022-07-06T14:09:39;2.72;;;1.15;;
66597;SDS011;57424;53.128;6.406;2022-07-06T14:12:04;4.75;;;1.20;;
66597;SDS011;57424;53.128;6.406;2022-07-06T14:14:30;2.13;;;1.10;;
66597;SDS011;57424;53.128;6.406;2022-07-06T14:16:56;1.98;;;1.00;;
66597;SDS011;57424;53.128;6.406;2022-07-06T14:19:22;6.68;;;1.45;;
66597;SDS011;57424;53.128;6.406;2022-07-06T14:21:48;1.75;;;1.40;;
66597;SDS011;57424;53.128;6.406;2022-07-06T14:24:14;3.92;;;1.30;;
66597;SDS011;57424;53.128;6.406;2022-07-06T14:26:39;2.17;;;1.10;;
66597;SDS011;57424;53.128;6.406;2022-07-06T14:29:05;3.42;;;1.88;;
66597;SDS011;57424;53.128;6.406;2022-07-06T14:31:31;2.55;;;1.45;;
66597;SDS011;57424;53.128;6.406;2022-07-06T14:33:56;4.90;;;1.60;;
66597;SDS011;57424;53.128;6.406;2022-07-06T14:36:22;4.82;;;1.80;;
66597;SDS011;57424;53.128;6.406;2022-07-06T14:38:47;4.78;;;1.70;;
66597;SDS011;57424;53.128;6.406;2022-07-06T14:41:13;3.05;;;1.67;;
66597;SDS011;57424;53.128;6.406;2022-07-06T14:43:39;5.55;;;1.50;;
66597;SDS011;57424;53.128;6.406;2022-07-06T14:46:04;5.30;;;1.63;;
66597;SDS011;57424;53.128;6.406;2022-07-06T14:48:30;1.70;;;1.35;;
66597;SDS011;57424;53.128;6.406;2022-07-06T14:50:56;4.10;;;1.60;;
66597;SDS011;57424;53.128;6.406;2022-07-06T14:53:22;3.60;;;1.58;;
66597;SDS011;57424;53.128;6.406;2022-07-06T14:55:48;3.17;;;1.55;;
66597;SDS011;57424;53.128;6.406;2022-07-06T14:58:14;9.30;;;1.77;;
66597;SDS011;57424;53.128;6.406;2022-07-06T15:00:42;3.63;;;1.60;;
66597;SDS011;57424;53.128;6.406;2022-07-06T15:03:11;4.10;;;1.60;;
66597;SDS011;57424;53.128;6.406;2022-07-06T15:05:36;4.43;;;1.65;;
66597;SDS011;57424;53.128;6.406;2022-07-06T15:08:02;5.57;;;1.60;;
66597;SDS011;57424;53.128;6.406;2022-07-06T15:10:29;5.32;;;1.52;;
66597;SDS011;57424;53.128;6.406;2022-07-06T15:12:55;3.28;;;1.60;;
66597;SDS011;57424;53.128;6.406;2022-07-06T15:15:20;3.45;;;1.70;;
66597;SDS011;57424;53.128;6.406;2022-07-06T15:17:47;4.63;;;1.58;;